Terminal Aerodrome Forecast
Issued by NWS

Current Version | Previous Version | Graphics & Text | Print | Product List | Glossary On
Versions: 1 2 3 4 5 6 7 8 9 10 11 12 13 14 15 16 17 18 19 20 21
000
FTUS41 KPBZ 160500
TAFHLG
TAF
KHLG 160527Z 1606/1706 13005KT P6SM SCT020 BKN200
     FM160800 15007KT 5SM -SHRA OVC030
     FM161100 16006KT 4SM -SHRA BR OVC015
     FM161700 20006KT 3SM BR OVC010
     FM162000 24008KT 2SM -SHRA BR OVC008=

USA.gov is the U.S. government's official web portal to all federal, state and local government web resources and services.